createdAt,value
2023-06-03T04:02:29.294Z,6.16
2023-06-03T04:06:37.574Z,6.50
2023-06-03T04:10:40.905Z,6.61
2023-06-03T04:14:49.757Z,6.74
2023-06-03T04:18:54.033Z,6.73
2023-06-03T04:22:56.921Z,6.72
2023-06-03T04:27:00.200Z,6.82
2023-06-03T04:31:02.954Z,6.92
2023-06-03T04:35:07.709Z,7.14
2023-06-03T04:39:12.135Z,7.39
2023-06-03T04:43:19.668Z,7.58
2023-06-03T04:47:23.495Z,7.86
2023-06-03T04:51:29.158Z,8.07
2023-06-03T04:55:32.587Z,8.17
2023-06-03T04:59:36.235Z,8.36
2023-06-03T05:03:40.652Z,8.51
2023-06-03T05:07:45.136Z,8.83
2023-06-03T05:11:47.826Z,9.00
2023-06-03T05:15:51.001Z,9.28
2023-06-03T05:19:53.665Z,9.50
2023-06-03T05:23:57.768Z,9.65
2023-06-03T05:28:04.518Z,9.69
2023-06-03T05:32:10.726Z,9.85
2023-06-03T05:36:13.523Z,10.00
2023-06-03T05:40:17.624Z,10.15
2023-06-03T05:44:20.444Z,10.43
2023-06-03T05:48:23.524Z,10.59
2023-06-03T05:52:27.191Z,10.76
2023-06-03T05:56:31.364Z,10.95
2023-06-03T06:00:34.008Z,11.25
2023-06-03T06:04:36.928Z,11.44
2023-06-03T06:08:39.607Z,11.61
2023-06-03T06:12:43.602Z,11.85
2023-06-03T06:16:46.236Z,11.99
2023-06-03T06:20:50.575Z,12.25
2023-06-03T06:24:53.243Z,12.48
2023-06-03T06:28:57.449Z,12.79
2023-06-03T06:33:00.122Z,13.07
2023-06-03T06:37:11.001Z,13.27
2023-06-03T06:41:16.110Z,13.63
2023-06-03T06:45:26.015Z,13.91
2023-06-03T06:49:34.295Z,14.25
2023-06-03T06:53:37.540Z,14.51
2023-06-03T06:57:42.845Z,14.75
2023-06-03T07:01:47.059Z,14.79
2023-06-03T07:05:53.640Z,14.89
2023-06-03T07:09:57.581Z,15.15
2023-06-03T07:14:00.813Z,15.31
2023-06-03T07:18:05.106Z,15.37
2023-06-03T07:22:08.545Z,15.52
2023-06-03T07:26:13.028Z,15.78
2023-06-03T07:30:17.231Z,15.93
2023-06-03T07:34:25.080Z,16.17
2023-06-03T07:38:58.156Z,16.24
2023-06-03T07:43:01.262Z,16.28
2023-06-03T07:47:03.882Z,16.31
2023-06-03T07:51:08.706Z,16.52
2023-06-03T07:55:12.024Z,16.78
2023-06-03T07:59:16.162Z,17.03
2023-06-03T08:03:23.163Z,17.19
2023-06-03T08:07:28.340Z,17.30
2023-06-03T08:11:33.043Z,17.50
2023-06-03T08:15:37.633Z,17.55
2023-06-03T08:19:40.903Z,17.61
2023-06-03T08:23:44.706Z,17.81
2023-06-03T08:27:47.437Z,17.96
2023-06-03T08:31:49.993Z,17.97
2023-06-03T08:35:52.889Z,18.01
2023-06-03T08:39:57.360Z,18.07
2023-06-03T08:44:04.008Z,18.35
2023-06-03T08:48:08.710Z,18.53
2023-06-03T08:52:11.762Z,18.60
2023-06-03T08:56:18.420Z,18.71
2023-06-03T09:00:24.690Z,18.93
2023-06-03T09:04:28.972Z,18.97
2023-06-03T09:08:33.227Z,19.09
2023-06-03T09:12:38.942Z,19.42
2023-06-03T09:16:41.675Z,19.65
2023-06-03T09:20:44.219Z,19.71
2023-06-03T09:24:46.812Z,19.64
2023-06-03T09:28:50.715Z,19.66
2023-06-03T09:32:53.395Z,19.74
2023-06-03T09:36:56.551Z,19.91
2023-06-03T09:41:14.376Z,20.02
2023-06-03T09:45:28.716Z,20.07
2023-06-03T09:49:44.399Z,20.11
2023-06-03T09:53:52.109Z,20.15
2023-06-03T09:58:05.486Z,19.87
2023-06-03T10:02:13.333Z,19.84
2023-06-03T10:06:19.802Z,20.03
2023-06-03T10:10:22.799Z,20.59
2023-06-03T10:14:27.371Z,20.94
2023-06-03T10:18:39.566Z,21.01
2023-06-03T10:22:44.202Z,20.90
2023-06-03T10:26:47.784Z,20.74
2023-06-03T10:30:51.330Z,20.85
2023-06-03T10:34:56.215Z,21.03
2023-06-03T10:39:05.272Z,20.99
2023-06-03T10:43:11.319Z,21.31
2023-06-03T10:47:18.828Z,21.59
2023-06-03T10:51:48.933Z,21.73
2023-06-03T10:56:06.534Z,21.22
2023-06-03T11:00:11.679Z,21.65
2023-06-03T11:04:18.719Z,21.82
2023-06-03T11:08:58.596Z,21.91
2023-06-03T11:13:04.427Z,21.60
2023-06-03T11:17:12.150Z,22.06
2023-06-03T11:21:47.995Z,22.18
2023-06-03T11:25:50.603Z,22.12
2023-06-03T11:29:58.773Z,22.16
2023-06-03T11:34:22.219Z,22.61
2023-06-03T11:38:59.054Z,22.88
2023-06-03T11:43:09.034Z,23.33
2023-06-03T11:47:12.917Z,23.52
2023-06-03T11:51:15.674Z,23.76
2023-06-03T11:55:24.118Z,23.86
2023-06-03T11:59:33.667Z,23.78
2023-06-03T12:03:38.257Z,24.15
2023-06-03T12:07:41.401Z,22.60
2023-06-03T12:11:44.297Z,22.68
2023-06-03T12:15:49.949Z,23.12
2023-06-03T12:19:54.222Z,23.18
2023-06-03T12:23:57.769Z,23.30
2023-06-03T12:28:00.754Z,22.90
2023-06-03T12:32:03.629Z,23.68
2023-06-03T12:36:07.684Z,24.10
2023-06-03T12:40:10.891Z,24.02
2023-06-03T12:44:13.622Z,23.97
2023-06-03T12:48:29.218Z,24.52
2023-06-03T12:52:35.690Z,23.43
2023-06-03T12:56:38.305Z,23.51
2023-06-03T13:00:41.032Z,23.41
2023-06-03T13:04:43.828Z,23.90
2023-06-03T13:08:49.432Z,23.85
2023-06-03T13:12:52.263Z,23.23
2023-06-03T13:16:54.756Z,23.81
2023-06-03T13:20:57.433Z,24.20
2023-06-03T13:25:01.810Z,23.45
2023-06-03T13:29:04.397Z,23.56
2023-06-03T13:33:07.200Z,23.65
2023-06-03T13:37:10.091Z,23.29
2023-06-03T13:41:14.028Z,23.67
2023-06-03T13:45:16.570Z,23.76
2023-06-03T13:49:19.406Z,23.52
2023-06-03T13:53:21.964Z,23.89
2023-06-03T13:57:25.920Z,24.46
2023-06-03T14:01:29.287Z,24.83
2023-06-03T14:05:31.946Z,23.98
2023-06-03T14:09:34.584Z,23.81
2023-06-03T14:13:38.504Z,24.41
2023-06-03T14:17:41.413Z,24.24
2023-06-03T14:21:44.287Z,23.93
2023-06-03T14:25:46.702Z,24.77
2023-06-03T14:29:50.653Z,24.92
2023-06-03T14:34:05.547Z,25.01
2023-06-03T14:38:08.078Z,24.68
2023-06-03T14:42:10.924Z,25.24
2023-06-03T14:46:15.811Z,24.70
2023-06-03T14:50:20.216Z,25.37
2023-06-03T14:54:23.116Z,25.81
2023-06-03T14:58:25.671Z,25.23
2023-06-03T15:02:29.873Z,25.37
2023-06-03T15:06:32.412Z,24.02
2023-06-03T15:10:35.153Z,24.27
2023-06-03T15:14:37.833Z,24.82
2023-06-03T15:18:48.108Z,25.14
2023-06-03T15:23:16.200Z,25.41
2023-06-03T15:27:19.261Z,25.86
2023-06-03T15:31:22.082Z,25.40
2023-06-03T15:35:25.846Z,26.76
2023-06-03T15:39:28.434Z,26.69
2023-06-03T15:43:31.382Z,25.93
2023-06-03T15:47:34.005Z,26.59
2023-06-03T15:51:38.277Z,27.04
2023-06-03T15:55:41.240Z,27.27
2023-06-03T15:59:43.935Z,27.45
2023-06-03T16:03:46.397Z,26.33
2023-06-03T16:07:50.274Z,25.70
2023-06-03T16:11:52.832Z,25.66
2023-06-03T16:17:45.431Z,25.65
2023-06-03T16:21:48.532Z,25.38
2023-06-03T16:25:51.120Z,26.08
2023-06-03T16:29:53.732Z,25.92
2023-06-03T16:34:00.400Z,25.57
2023-06-03T16:38:03.604Z,25.73
2023-06-03T16:42:06.898Z,26.68
2023-06-03T16:46:09.749Z,26.12
2023-06-03T16:50:13.847Z,26.66
2023-06-03T16:54:16.523Z,27.43
2023-06-03T16:58:19.115Z,28.42
2023-06-03T17:02:22.171Z,28.31
2023-06-03T17:06:26.222Z,27.21
2023-06-03T17:10:29.987Z,26.21
2023-06-03T17:14:32.621Z,26.18
2023-06-03T17:18:35.186Z,26.76
2023-06-03T17:22:39.058Z,26.01
2023-06-03T17:26:41.682Z,25.78
2023-06-03T17:30:44.196Z,25.53
2023-06-03T17:34:46.733Z,25.25
2023-06-03T17:38:50.637Z,26.35
2023-06-03T17:42:53.192Z,26.53
2023-06-03T17:46:56.022Z,25.94
2023-06-03T17:50:58.605Z,26.18
2023-06-03T17:55:02.482Z,25.19
2023-06-03T17:59:05.034Z,25.30
2023-06-03T18:03:07.763Z,25.04
2023-06-03T18:07:10.343Z,24.88
2023-06-03T18:11:15.202Z,24.82
2023-06-03T18:15:17.974Z,24.64
2023-06-03T18:19:20.409Z,24.59
2023-06-03T18:23:22.992Z,23.53
2023-06-03T18:27:26.954Z,22.84
2023-06-03T18:31:29.545Z,22.04
2023-06-03T18:35:32.258Z,21.65
2023-06-03T18:39:34.856Z,21.39
2023-06-03T18:43:38.913Z,21.22
2023-06-03T18:47:44.273Z,20.91
2023-06-03T18:51:47.436Z,20.68
2023-06-03T18:55:49.972Z,20.43
2023-06-03T18:59:53.840Z,20.18
2023-06-03T19:03:57.486Z,20.01
2023-06-03T19:08:00.164Z,19.75
2023-06-03T19:12:02.922Z,19.32
2023-06-03T19:16:07.638Z,18.71
2023-06-03T19:20:11.230Z,18.42
2023-06-03T19:24:13.868Z,17.94
2023-06-03T19:28:16.435Z,17.80
2023-06-03T19:32:20.381Z,17.59
2023-06-03T19:36:23.298Z,17.11
2023-06-03T19:40:25.852Z,16.69
2023-06-03T19:44:28.534Z,16.55
2023-06-03T19:48:43.598Z,16.51
2023-06-03T19:52:55.427Z,16.33
2023-06-03T19:56:58.868Z,16.16
2023-06-03T20:01:01.439Z,15.92
2023-06-03T20:05:07.474Z,15.58
2023-06-03T20:09:10.029Z,15.29
2023-06-03T20:13:25.801Z,14.82
2023-06-03T20:17:35.107Z,14.55
2023-06-03T20:21:39.011Z,14.65
2023-06-03T20:25:43.224Z,14.41
2023-06-03T20:29:45.863Z,14.12
2023-06-03T20:33:48.676Z,14.00
2023-06-03T20:37:52.577Z,13.83
2023-06-03T20:41:55.111Z,13.68
2023-06-03T20:45:58.893Z,13.62
2023-06-03T20:50:01.523Z,13.66
2023-06-03T20:54:05.571Z,13.56
2023-06-03T20:58:08.122Z,13.30
2023-06-03T21:39:15.656Z,11.76
2023-06-03T21:43:18.208Z,11.58
2023-06-03T21:47:20.733Z,11.30
2023-06-03T21:51:23.316Z,11.24
2023-06-03T21:55:27.369Z,11.17
2023-06-03T21:59:31.251Z,11.11
2023-06-03T22:03:33.910Z,10.84
2023-06-03T22:07:36.480Z,10.88
2023-06-03T22:11:40.437Z,10.77
2023-06-03T22:15:43.064Z,10.66
2023-06-03T22:19:45.636Z,10.79
2023-06-03T22:23:48.732Z,10.96
2023-06-03T22:27:52.665Z,10.92
2023-06-03T22:31:55.331Z,10.85
2023-06-03T22:36:01.750Z,10.55
2023-06-03T22:40:04.674Z,10.22
2023-06-03T22:44:08.609Z,10.10
2023-06-03T22:48:11.183Z,10.13
2023-06-03T22:52:13.749Z,10.08
2023-06-03T22:56:16.297Z,9.64
2023-06-03T23:00:20.432Z,9.50
2023-06-03T23:04:23.365Z,9.59
2023-06-03T23:08:25.939Z,9.59
2023-06-03T23:12:28.501Z,9.29
2023-06-03T23:16:32.484Z,9.51
2023-06-03T23:20:35.886Z,9.52
2023-06-03T23:24:38.471Z,9.50
2023-06-03T23:28:41.016Z,9.36
2023-06-03T23:32:45.327Z,9.33
2023-06-03T23:36:47.904Z,9.27
2023-06-03T23:40:50.584Z,9.18
2023-06-03T23:44:56.727Z,9.16
2023-06-03T23:49:01.110Z,9.02
2023-06-03T23:53:04.752Z,8.65
2023-06-03T23:57:07.356Z,8.57
